sensor_id;sensor_type;location;lat;lon;timestamp;P1;durP1;ratioP1;P2;durP2;ratioP2
8225;SDS011;4154;48.810;9.012;2023-06-19T00:00:31;8.25;;;7.47;;
8225;SDS011;4154;48.810;9.012;2023-06-19T00:02:57;7.93;;;7.10;;
8225;SDS011;4154;48.810;9.012;2023-06-19T00:05:23;7.50;;;6.90;;
8225;SDS011;4154;48.810;9.012;2023-06-19T00:07:50;8.00;;;7.30;;
8225;SDS011;4154;48.810;9.012;2023-06-19T00:10:16;7.50;;;6.80;;
8225;SDS011;4154;48.810;9.012;2023-06-19T00:12:43;8.55;;;6.65;;
8225;SDS011;4154;48.810;9.012;2023-06-19T00:15:09;7.35;;;6.75;;
8225;SDS011;4154;48.810;9.012;2023-06-19T00:17:35;7.53;;;6.93;;
8225;SDS011;4154;48.810;9.012;2023-06-19T00:20:05;7.38;;;6.75;;
8225;SDS011;4154;48.810;9.012;2023-06-19T00:22:31;6.82;;;6.30;;
8225;SDS011;4154;48.810;9.012;2023-06-19T00:24:57;8.13;;;7.32;;
8225;SDS011;4154;48.810;9.012;2023-06-19T00:27:24;7.63;;;7.03;;
8225;SDS011;4154;48.810;9.012;2023-06-19T00:29:51;7.50;;;6.85;;
8225;SDS011;4154;48.810;9.012;2023-06-19T00:32:17;7.25;;;6.55;;
8225;SDS011;4154;48.810;9.012;2023-06-19T00:34:43;7.70;;;7.03;;
8225;SDS011;4154;48.810;9.012;2023-06-19T00:37:09;7.70;;;6.95;;
8225;SDS011;4154;48.810;9.012;2023-06-19T00:39:38;7.55;;;6.88;;
8225;SDS011;4154;48.810;9.012;2023-06-19T00:42:05;7.57;;;6.88;;
8225;SDS011;4154;48.810;9.012;2023-06-19T00:44:31;8.02;;;7.32;;
8225;SDS011;4154;48.810;9.012;2023-06-19T00:46:57;7.78;;;7.10;;
8225;SDS011;4154;48.810;9.012;2023-06-19T00:49:26;8.00;;;7.30;;
8225;SDS011;4154;48.810;9.012;2023-06-19T00:51:54;7.28;;;6.57;;
8225;SDS011;4154;48.810;9.012;2023-06-19T00:54:21;7.68;;;7.00;;
8225;SDS011;4154;48.810;9.012;2023-06-19T00:56:47;7.50;;;6.90;;
8225;SDS011;4154;48.810;9.012;2023-06-19T00:59:18;7.95;;;7.13;;
8225;SDS011;4154;48.810;9.012;2023-06-19T01:01:44;7.72;;;7.03;;
8225;SDS011;4154;48.810;9.012;2023-06-19T01:04:11;7.30;;;6.60;;
8225;SDS011;4154;48.810;9.012;2023-06-19T01:06:43;7.15;;;5.97;;
8225;SDS011;4154;48.810;9.012;2023-06-19T01:09:26;5.72;;;5.20;;
8225;SDS011;4154;48.810;9.012;2023-06-19T01:12:01;6.68;;;5.18;;
8225;SDS011;4154;48.810;9.012;2023-06-19T01:15:07;4.82;;;4.30;;
8225;SDS011;4154;48.810;9.012;2023-06-19T01:17:29;5.43;;;4.60;;
8225;SDS011;4154;48.810;9.012;2023-06-19T01:19:56;4.95;;;3.90;;
8225;SDS011;4154;48.810;9.012;2023-06-19T01:22:23;4.35;;;3.85;;
8225;SDS011;4154;48.810;9.012;2023-06-19T01:24:53;4.32;;;3.92;;
8225;SDS011;4154;48.810;9.012;2023-06-19T01:27:20;5.43;;;4.15;;
8225;SDS011;4154;48.810;9.012;2023-06-19T01:29:48;6.60;;;4.07;;
8225;SDS011;4154;48.810;9.012;2023-06-19T01:32:15;4.68;;;3.92;;
8225;SDS011;4154;48.810;9.012;2023-06-19T01:34:51;4.50;;;4.10;;
8225;SDS011;4154;48.810;9.012;2023-06-19T01:37:22;4.63;;;4.20;;
8225;SDS011;4154;48.810;9.012;2023-06-19T01:39:54;4.60;;;4.20;;
8225;SDS011;4154;48.810;9.012;2023-06-19T01:42:22;4.20;;;3.90;;
8225;SDS011;4154;48.810;9.012;2023-06-19T01:44:49;4.93;;;4.53;;
8225;SDS011;4154;48.810;9.012;2023-06-19T01:47:16;6.03;;;4.30;;
8225;SDS011;4154;48.810;9.012;2023-06-19T01:49:45;4.43;;;4.03;;
8225;SDS011;4154;48.810;9.012;2023-06-19T01:52:11;4.45;;;4.03;;
8225;SDS011;4154;48.810;9.012;2023-06-19T01:54:38;4.22;;;3.83;;
8225;SDS011;4154;48.810;9.012;2023-06-19T01:57:04;4.22;;;3.83;;
8225;SDS011;4154;48.810;9.012;2023-06-19T01:59:31;4.40;;;4.00;;
8225;SDS011;4154;48.810;9.012;2023-06-19T02:01:57;4.50;;;4.15;;
8225;SDS011;4154;48.810;9.012;2023-06-19T02:04:23;3.88;;;3.60;;
8225;SDS011;4154;48.810;9.012;2023-06-19T02:06:49;4.10;;;3.80;;
8225;SDS011;4154;48.810;9.012;2023-06-19T02:09:15;4.40;;;4.10;;
8225;SDS011;4154;48.810;9.012;2023-06-19T02:11:41;4.07;;;3.70;;
8225;SDS011;4154;48.810;9.012;2023-06-19T02:14:08;4.60;;;4.30;;
8225;SDS011;4154;48.810;9.012;2023-06-19T02:16:35;4.03;;;3.67;;
8225;SDS011;4154;48.810;9.012;2023-06-19T02:19:01;3.97;;;3.67;;
8225;SDS011;4154;48.810;9.012;2023-06-19T02:21:27;3.97;;;3.67;;
8225;SDS011;4154;48.810;9.012;2023-06-19T02:23:54;3.80;;;3.50;;
8225;SDS011;4154;48.810;9.012;2023-06-19T02:26:20;4.20;;;3.80;;
8225;SDS011;4154;48.810;9.012;2023-06-19T02:28:46;3.83;;;3.53;;
8225;SDS011;4154;48.810;9.012;2023-06-19T02:31:12;3.92;;;3.63;;
8225;SDS011;4154;48.810;9.012;2023-06-19T02:33:38;4.13;;;3.83;;
8225;SDS011;4154;48.810;9.012;2023-06-19T02:36:04;4.15;;;3.58;;
8225;SDS011;4154;48.810;9.012;2023-06-19T02:38:30;3.85;;;3.60;;
8225;SDS011;4154;48.810;9.012;2023-06-19T02:40:56;3.92;;;3.63;;
8225;SDS011;4154;48.810;9.012;2023-06-19T02:43:22;4.18;;;3.70;;
8225;SDS011;4154;48.810;9.012;2023-06-19T02:45:48;4.28;;;3.88;;
8225;SDS011;4154;48.810;9.012;2023-06-19T02:48:14;3.90;;;3.60;;
8225;SDS011;4154;48.810;9.012;2023-06-19T02:50:41;3.70;;;3.40;;
8225;SDS011;4154;48.810;9.012;2023-06-19T02:53:07;3.45;;;3.20;;
8225;SDS011;4154;48.810;9.012;2023-06-19T02:55:33;4.07;;;3.78;;
8225;SDS011;4154;48.810;9.012;2023-06-19T02:57:59;3.97;;;3.50;;
8225;SDS011;4154;48.810;9.012;2023-06-19T03:00:25;3.70;;;3.40;;
8225;SDS011;4154;48.810;9.012;2023-06-19T03:02:53;3.50;;;3.20;;
8225;SDS011;4154;48.810;9.012;2023-06-19T03:05:19;3.97;;;3.67;;
8225;SDS011;4154;48.810;9.012;2023-06-19T03:07:45;4.00;;;3.70;;
8225;SDS011;4154;48.810;9.012;2023-06-19T03:10:12;3.63;;;3.33;;
8225;SDS011;4154;48.810;9.012;2023-06-19T03:12:38;3.78;;;3.55;;
8225;SDS011;4154;48.810;9.012;2023-06-19T03:15:04;3.70;;;3.40;;
8225;SDS011;4154;48.810;9.012;2023-06-19T03:17:30;4.00;;;3.70;;
8225;SDS011;4154;48.810;9.012;2023-06-19T03:19:56;4.15;;;3.30;;
8225;SDS011;4154;48.810;9.012;2023-06-19T03:22:22;5.45;;;3.40;;
8225;SDS011;4154;48.810;9.012;2023-06-19T03:24:48;4.03;;;3.00;;
8225;SDS011;4154;48.810;9.012;2023-06-19T03:27:14;3.47;;;3.08;;
8225;SDS011;4154;48.810;9.012;2023-06-19T03:29:40;3.50;;;3.20;;
8225;SDS011;4154;48.810;9.012;2023-06-19T03:32:06;3.58;;;3.00;;
8225;SDS011;4154;48.810;9.012;2023-06-19T03:34:33;3.08;;;2.88;;
8225;SDS011;4154;48.810;9.012;2023-06-19T03:36:59;3.20;;;3.00;;
8225;SDS011;4154;48.810;9.012;2023-06-19T03:39:25;3.10;;;2.90;;
8225;SDS011;4154;48.810;9.012;2023-06-19T03:41:51;3.20;;;2.72;;
8225;SDS011;4154;48.810;9.012;2023-06-19T03:44:18;2.95;;;2.75;;
8225;SDS011;4154;48.810;9.012;2023-06-19T03:46:44;3.30;;;3.00;;
8225;SDS011;4154;48.810;9.012;2023-06-19T03:49:12;3.20;;;2.90;;
8225;SDS011;4154;48.810;9.012;2023-06-19T03:51:38;3.40;;;3.10;;
8225;SDS011;4154;48.810;9.012;2023-06-19T03:54:04;3.20;;;3.00;;
8225;SDS011;4154;48.810;9.012;2023-06-19T03:56:30;2.90;;;2.67;;
8225;SDS011;4154;48.810;9.012;2023-06-19T03:58:56;3.38;;;2.90;;
8225;SDS011;4154;48.810;9.012;2023-06-19T04:01:22;2.90;;;2.70;;
8225;SDS011;4154;48.810;9.012;2023-06-19T04:03:48;3.55;;;2.85;;
8225;SDS011;4154;48.810;9.012;2023-06-19T04:06:14;2.83;;;2.63;;
8225;SDS011;4154;48.810;9.012;2023-06-19T04:08:40;2.90;;;2.70;;
8225;SDS011;4154;48.810;9.012;2023-06-19T04:11:06;3.17;;;2.63;;
8225;SDS011;4154;48.810;9.012;2023-06-19T04:13:32;3.05;;;2.60;;
8225;SDS011;4154;48.810;9.012;2023-06-19T04:15:58;2.60;;;2.40;;
8225;SDS011;4154;48.810;9.012;2023-06-19T04:18:24;2.83;;;2.63;;
8225;SDS011;4154;48.810;9.012;2023-06-19T04:20:52;3.10;;;2.80;;
8225;SDS011;4154;48.810;9.012;2023-06-19T04:23:18;3.08;;;2.80;;
8225;SDS011;4154;48.810;9.012;2023-06-19T04:25:44;2.88;;;2.67;;
8225;SDS011;4154;48.810;9.012;2023-06-19T04:28:10;3.20;;;2.90;;
8225;SDS011;4154;48.810;9.012;2023-06-19T04:30:36;3.00;;;2.60;;
8225;SDS011;4154;48.810;9.012;2023-06-19T04:33:04;2.80;;;2.45;;
8225;SDS011;4154;48.810;9.012;2023-06-19T04:35:31;4.75;;;2.83;;
8225;SDS011;4154;48.810;9.012;2023-06-19T04:37:57;4.55;;;2.50;;
8225;SDS011;4154;48.810;9.012;2023-06-19T04:40:26;2.83;;;2.63;;
8225;SDS011;4154;48.810;9.012;2023-06-19T04:42:52;2.88;;;2.67;;
8225;SDS011;4154;48.810;9.012;2023-06-19T04:45:19;2.95;;;2.75;;
8225;SDS011;4154;48.810;9.012;2023-06-19T04:47:45;2.83;;;2.63;;
8225;SDS011;4154;48.810;9.012;2023-06-19T04:50:11;2.75;;;2.50;;
8225;SDS011;4154;48.810;9.012;2023-06-19T04:52:37;2.80;;;2.60;;
8225;SDS011;4154;48.810;9.012;2023-06-19T04:55:06;2.97;;;2.72;;
8225;SDS011;4154;48.810;9.012;2023-06-19T04:57:34;3.45;;;2.97;;
8225;SDS011;4154;48.810;9.012;2023-06-19T05:00:02;5.38;;;2.70;;
8225;SDS011;4154;48.810;9.012;2023-06-19T05:02:32;2.72;;;2.53;;
8225;SDS011;4154;48.810;9.012;2023-06-19T05:04:59;3.17;;;2.88;;
8225;SDS011;4154;48.810;9.012;2023-06-19T05:07:29;3.78;;;2.90;;
8225;SDS011;4154;48.810;9.012;2023-06-19T05:09:56;3.13;;;2.85;;
8225;SDS011;4154;48.810;9.012;2023-06-19T05:12:22;3.22;;;2.92;;
8225;SDS011;4154;48.810;9.012;2023-06-19T05:14:48;2.92;;;2.67;;
8225;SDS011;4154;48.810;9.012;2023-06-19T05:17:14;3.00;;;2.80;;
8225;SDS011;4154;48.810;9.012;2023-06-19T05:19:40;2.95;;;2.75;;
8225;SDS011;4154;48.810;9.012;2023-06-19T05:22:06;3.15;;;2.92;;
8225;SDS011;4154;48.810;9.012;2023-06-19T05:24:33;3.50;;;3.05;;
8225;SDS011;4154;48.810;9.012;2023-06-19T05:26:59;3.20;;;2.90;;
8225;SDS011;4154;48.810;9.012;2023-06-19T05:29:25;3.80;;;2.85;;
8225;SDS011;4154;48.810;9.012;2023-06-19T05:31:51;3.13;;;2.90;;
8225;SDS011;4154;48.810;9.012;2023-06-19T05:34:17;3.35;;;2.70;;
8225;SDS011;4154;48.810;9.012;2023-06-19T05:36:43;3.45;;;2.90;;
8225;SDS011;4154;48.810;9.012;2023-06-19T05:39:11;3.30;;;3.00;;
8225;SDS011;4154;48.810;9.012;2023-06-19T05:41:38;2.95;;;2.72;;
8225;SDS011;4154;48.810;9.012;2023-06-19T05:44:04;3.40;;;3.10;;
8225;SDS011;4154;48.810;9.012;2023-06-19T05:46:30;4.97;;;3.30;;
8225;SDS011;4154;48.810;9.012;2023-06-19T05:48:56;3.17;;;2.92;;
8225;SDS011;4154;48.810;9.012;2023-06-19T05:51:22;3.03;;;2.83;;
8225;SDS011;4154;48.810;9.012;2023-06-19T05:53:48;3.20;;;2.90;;
8225;SDS011;4154;48.810;9.012;2023-06-19T05:56:15;4.72;;;3.05;;
8225;SDS011;4154;48.810;9.012;2023-06-19T05:58:41;3.33;;;3.03;;
8225;SDS011;4154;48.810;9.012;2023-06-19T06:01:07;3.38;;;3.08;;
8225;SDS011;4154;48.810;9.012;2023-06-19T06:03:34;2.90;;;2.70;;
8225;SDS011;4154;48.810;9.012;2023-06-19T06:06:01;3.40;;;3.10;;
8225;SDS011;4154;48.810;9.012;2023-06-19T06:08:30;5.47;;;3.20;;
8225;SDS011;4154;48.810;9.012;2023-06-19T06:10:56;5.57;;;3.20;;
8225;SDS011;4154;48.810;9.012;2023-06-19T06:13:22;3.35;;;2.92;;
8225;SDS011;4154;48.810;9.012;2023-06-19T06:15:48;3.35;;;2.90;;
8225;SDS011;4154;48.810;9.012;2023-06-19T06:18:15;3.40;;;3.10;;
8225;SDS011;4154;48.810;9.012;2023-06-19T06:20:41;3.42;;;3.13;;
8225;SDS011;4154;48.810;9.012;2023-06-19T06:23:08;3.33;;;2.97;;
8225;SDS011;4154;48.810;9.012;2023-06-19T06:25:34;3.30;;;2.95;;
8225;SDS011;4154;48.810;9.012;2023-06-19T06:28:00;3.13;;;2.80;;
8225;SDS011;4154;48.810;9.012;2023-06-19T06:30:26;3.30;;;3.10;;
8225;SDS011;4154;48.810;9.012;2023-06-19T06:32:55;3.03;;;2.83;;
8225;SDS011;4154;48.810;9.012;2023-06-19T06:35:21;3.50;;;3.10;;
8225;SDS011;4154;48.810;9.012;2023-06-19T06:37:47;3.33;;;3.03;;
8225;SDS011;4154;48.810;9.012;2023-06-19T06:40:14;3.15;;;2.92;;
8225;SDS011;4154;48.810;9.012;2023-06-19T06:42:43;4.70;;;2.90;;
8225;SDS011;4154;48.810;9.012;2023-06-19T06:45:12;3.35;;;3.00;;
8225;SDS011;4154;48.810;9.012;2023-06-19T06:47:38;4.07;;;3.05;;
8225;SDS011;4154;48.810;9.012;2023-06-19T06:50:08;3.10;;;2.80;;
8225;SDS011;4154;48.810;9.012;2023-06-19T06:52:34;3.10;;;2.70;;
8225;SDS011;4154;48.810;9.012;2023-06-19T06:55:00;3.30;;;3.00;;
8225;SDS011;4154;48.810;9.012;2023-06-19T06:57:26;3.42;;;2.95;;
8225;SDS011;4154;48.810;9.012;2023-06-19T06:59:52;3.25;;;2.88;;
8225;SDS011;4154;48.810;9.012;2023-06-19T07:02:18;2.90;;;2.70;;
8225;SDS011;4154;48.810;9.012;2023-06-19T07:04:45;3.13;;;2.85;;
8225;SDS011;4154;48.810;9.012;2023-06-19T07:07:11;3.17;;;2.97;;
8225;SDS011;4154;48.810;9.012;2023-06-19T07:09:37;4.32;;;3.00;;
8225;SDS011;4154;48.810;9.012;2023-06-19T07:12:03;2.90;;;2.70;;
8225;SDS011;4154;48.810;9.012;2023-06-19T07:14:31;4.28;;;3.00;;
8225;SDS011;4154;48.810;9.012;2023-06-19T07:16:57;3.08;;;2.88;;
8225;SDS011;4154;48.810;9.012;2023-06-19T07:19:23;4.72;;;3.10;;
8225;SDS011;4154;48.810;9.012;2023-06-19T07:21:49;3.65;;;3.00;;
8225;SDS011;4154;48.810;9.012;2023-06-19T07:24:16;4.47;;;3.05;;
8225;SDS011;4154;48.810;9.012;2023-06-19T07:26:42;2.88;;;2.67;;
8225;SDS011;4154;48.810;9.012;2023-06-19T07:29:08;3.40;;;3.10;;
8225;SDS011;4154;48.810;9.012;2023-06-19T07:31:34;2.97;;;2.78;;
8225;SDS011;4154;48.810;9.012;2023-06-19T07:34:00;4.00;;;2.90;;
8225;SDS011;4154;48.810;9.012;2023-06-19T07:36:27;3.10;;;2.80;;
8225;SDS011;4154;48.810;9.012;2023-06-19T07:38:55;3.00;;;2.80;;
8225;SDS011;4154;48.810;9.012;2023-06-19T07:41:20;2.60;;;2.40;;
8225;SDS011;4154;48.810;9.012;2023-06-19T07:43:46;4.93;;;3.10;;
8225;SDS011;4154;48.810;9.012;2023-06-19T07:46:12;3.17;;;2.97;;
8225;SDS011;4154;48.810;9.012;2023-06-19T07:48:40;3.00;;;2.72;;
8225;SDS011;4154;48.810;9.012;2023-06-19T07:51:06;3.10;;;2.90;;
8225;SDS011;4154;48.810;9.012;2023-06-19T07:53:32;3.53;;;3.22;;
8225;SDS011;4154;48.810;9.012;2023-06-19T07:55:58;5.63;;;3.38;;
8225;SDS011;4154;48.810;9.012;2023-06-19T07:58:24;5.63;;;3.00;;
8225;SDS011;4154;48.810;9.012;2023-06-19T08:00:50;3.20;;;2.90;;
8225;SDS011;4154;48.810;9.012;2023-06-19T08:03:16;4.47;;;2.92;;
8225;SDS011;4154;48.810;9.012;2023-06-19T08:05:42;3.20;;;3.00;;
8225;SDS011;4154;48.810;9.012;2023-06-19T08:08:08;4.18;;;2.88;;
8225;SDS011;4154;48.810;9.012;2023-06-19T08:10:34;4.20;;;2.90;;
8225;SDS011;4154;48.810;9.012;2023-06-19T08:13:00;2.92;;;2.72;;
8225;SDS011;4154;48.810;9.012;2023-06-19T08:15:26;3.00;;;2.80;;
8225;SDS011;4154;48.810;9.012;2023-06-19T08:17:52;3.00;;;2.70;;
8225;SDS011;4154;48.810;9.012;2023-06-19T08:20:18;2.90;;;2.60;;
8225;SDS011;4154;48.810;9.012;2023-06-19T08:22:45;2.90;;;2.70;;
8225;SDS011;4154;48.810;9.012;2023-06-19T08:25:11;2.85;;;2.65;;
8225;SDS011;4154;48.810;9.012;2023-06-19T08:27:37;2.92;;;2.70;;
8225;SDS011;4154;48.810;9.012;2023-06-19T08:30:03;2.85;;;2.65;;
8225;SDS011;4154;48.810;9.012;2023-06-19T08:32:29;2.88;;;2.67;;
8225;SDS011;4154;48.810;9.012;2023-06-19T08:34:55;2.70;;;2.50;;
8225;SDS011;4154;48.810;9.012;2023-06-19T08:37:27;2.70;;;2.50;;
8225;SDS011;4154;48.810;9.012;2023-06-19T08:39:53;2.70;;;2.50;;
8225;SDS011;4154;48.810;9.012;2023-06-19T08:42:21;3.00;;;2.78;;
8225;SDS011;4154;48.810;9.012;2023-06-19T08:44:47;3.13;;;2.83;;
8225;SDS011;4154;48.810;9.012;2023-06-19T08:47:14;2.67;;;2.47;;
8225;SDS011;4154;48.810;9.012;2023-06-19T08:49:40;2.70;;;2.50;;
8225;SDS011;4154;48.810;9.012;2023-06-19T08:52:06;2.83;;;2.63;;
8225;SDS011;4154;48.810;9.012;2023-06-19T08:54:32;2.67;;;2.47;;
8225;SDS011;4154;48.810;9.012;2023-06-19T08:57:02;3.35;;;2.80;;
8225;SDS011;4154;48.810;9.012;2023-06-19T08:59:29;3.40;;;3.10;;
8225;SDS011;4154;48.810;9.012;2023-06-19T09:01:56;2.90;;;2.60;;
8225;SDS011;4154;48.810;9.012;2023-06-19T09:04:26;3.13;;;2.92;;
8225;SDS011;4154;48.810;9.012;2023-06-19T09:06:53;3.15;;;2.88;;
8225;SDS011;4154;48.810;9.012;2023-06-19T09:09:27;3.63;;;3.33;;
8225;SDS011;4154;48.810;9.012;2023-06-19T09:12:07;2.88;;;2.67;;
8225;SDS011;4154;48.810;9.012;2023-06-19T09:14:36;3.22;;;2.92;;
8225;SDS011;4154;48.810;9.012;2023-06-19T09:17:04;3.13;;;2.92;;
8225;SDS011;4154;48.810;9.012;2023-06-19T09:19:33;3.08;;;2.88;;
8225;SDS011;4154;48.810;9.012;2023-06-19T09:22:03;3.28;;;3.08;;
8225;SDS011;4154;48.810;9.012;2023-06-19T09:24:34;5.95;;;3.95;;
8225;SDS011;4154;48.810;9.012;2023-06-19T09:27:08;4.10;;;3.67;;
8225;SDS011;4154;48.810;9.012;2023-06-19T09:29:37;3.88;;;3.50;;
8225;SDS011;4154;48.810;9.012;2023-06-19T09:32:20;4.75;;;3.45;;
8225;SDS011;4154;48.810;9.012;2023-06-19T09:34:47;3.80;;;3.50;;
8225;SDS011;4154;48.810;9.012;2023-06-19T09:37:16;5.25;;;3.50;;
8225;SDS011;4154;48.810;9.012;2023-06-19T09:39:53;4.28;;;3.92;;
8225;SDS011;4154;48.810;9.012;2023-06-19T09:42:42;6.65;;;3.58;;
8225;SDS011;4154;48.810;9.012;2023-06-19T09:45:11;4.43;;;3.60;;
8225;SDS011;4154;48.810;9.012;2023-06-19T09:47:44;3.50;;;3.20;;
8225;SDS011;4154;48.810;9.012;2023-06-19T09:50:12;3.70;;;3.40;;
8225;SDS011;4154;48.810;9.012;2023-06-19T09:52:40;4.72;;;3.53;;
8225;SDS011;4154;48.810;9.012;2023-06-19T09:55:08;3.88;;;3.58;;
8225;SDS011;4154;48.810;9.012;2023-06-19T09:57:38;3.40;;;3.20;;
8225;SDS011;4154;48.810;9.012;2023-06-19T10:00:05;3.47;;;3.17;;
8225;SDS011;4154;48.810;9.012;2023-06-19T10:02:47;4.03;;;3.58;;
8225;SDS011;4154;48.810;9.012;2023-06-19T10:05:14;6.05;;;3.55;;
8225;SDS011;4154;48.810;9.012;2023-06-19T10:07:41;5.85;;;3.50;;
8225;SDS011;4154;48.810;9.012;2023-06-19T10:10:11;3.55;;;3.22;;
8225;SDS011;4154;48.810;9.012;2023-06-19T10:12:48;3.30;;;3.00;;
8225;SDS011;4154;48.810;9.012;2023-06-19T10:15:15;4.03;;;3.00;;
8225;SDS011;4154;48.810;9.012;2023-06-19T10:17:53;3.30;;;3.03;;
8225;SDS011;4154;48.810;9.012;2023-06-19T10:23:04;5.65;;;3.30;;
8225;SDS011;4154;48.810;9.012;2023-06-19T10:25:34;3.72;;;3.40;;
8225;SDS011;4154;48.810;9.012;2023-06-19T10:28:03;3.53;;;3.30;;
8225;SDS011;4154;48.810;9.012;2023-06-19T10:30:33;3.50;;;3.20;;
8225;SDS011;4154;48.810;9.012;2023-06-19T10:33:02;3.80;;;3.50;;
8225;SDS011;4154;48.810;9.012;2023-06-19T10:35:28;3.75;;;3.45;;
8225;SDS011;4154;48.810;9.012;2023-06-19T10:37:54;4.10;;;3.70;;
8225;SDS011;4154;48.810;9.012;2023-06-19T10:40:20;3.80;;;3.50;;
8225;SDS011;4154;48.810;9.012;2023-06-19T10:42:46;4.07;;;3.60;;
8225;SDS011;4154;48.810;9.012;2023-06-19T10:45:13;4.13;;;3.70;;
8225;SDS011;4154;48.810;9.012;2023-06-19T10:47:42;4.90;;;4.43;;
8225;SDS011;4154;48.810;9.012;2023-06-19T10:50:12;3.78;;;3.47;;
8225;SDS011;4154;48.810;9.012;2023-06-19T10:52:40;3.63;;;3.33;;
8225;SDS011;4154;48.810;9.012;2023-06-19T10:55:10;4.65;;;3.85;;
8225;SDS011;4154;48.810;9.012;2023-06-19T10:57:37;3.85;;;3.53;;
8225;SDS011;4154;48.810;9.012;2023-06-19T11:00:05;3.95;;;3.65;;
8225;SDS011;4154;48.810;9.012;2023-06-19T11:02:37;4.40;;;3.90;;
8225;SDS011;4154;48.810;9.012;2023-06-19T11:05:04;4.00;;;3.60;;
8225;SDS011;4154;48.810;9.012;2023-06-19T11:07:31;5.35;;;3.50;;
8225;SDS011;4154;48.810;9.012;2023-06-19T11:09:57;5.45;;;4.00;;
8225;SDS011;4154;48.810;9.012;2023-06-19T11:12:23;7.32;;;4.07;;
8225;SDS011;4154;48.810;9.012;2023-06-19T11:14:49;5.53;;;4.03;;
8225;SDS011;4154;48.810;9.012;2023-06-19T11:17:16;5.68;;;4.10;;
8225;SDS011;4154;48.810;9.012;2023-06-19T11:19:49;4.28;;;3.70;;
8225;SDS011;4154;48.810;9.012;2023-06-19T11:22:16;4.72;;;4.10;;
8225;SDS011;4154;48.810;9.012;2023-06-19T11:24:45;4.50;;;4.10;;
8225;SDS011;4154;48.810;9.012;2023-06-19T11:27:18;5.70;;;4.00;;
8225;SDS011;4154;48.810;9.012;2023-06-19T11:29:56;5.03;;;3.95;;
8225;SDS011;4154;48.810;9.012;2023-06-19T11:32:23;4.20;;;3.90;;
8225;SDS011;4154;48.810;9.012;2023-06-19T11:35:03;4.55;;;3.90;;
8225;SDS011;4154;48.810;9.012;2023-06-19T11:37:32;4.60;;;4.20;;
8225;SDS011;4154;48.810;9.012;2023-06-19T11:39:59;3.85;;;3.55;;
8225;SDS011;4154;48.810;9.012;2023-06-19T11:42:26;5.90;;;3.97;;
8225;SDS011;4154;48.810;9.012;2023-06-19T11:44:57;4.57;;;4.03;;
8225;SDS011;4154;48.810;9.012;2023-06-19T11:47:31;4.00;;;3.70;;
8225;SDS011;4154;48.810;9.012;2023-06-19T11:49:58;4.00;;;3.70;;
8225;SDS011;4154;48.810;9.012;2023-06-19T11:52:25;3.90;;;3.60;;
8225;SDS011;4154;48.810;9.012;2023-06-19T11:54:51;4.03;;;3.70;;
8225;SDS011;4154;48.810;9.012;2023-06-19T11:57:17;4.20;;;3.90;;
8225;SDS011;4154;48.810;9.012;2023-06-19T11:59:43;4.07;;;3.70;;
8225;SDS011;4154;48.810;9.012;2023-06-19T12:02:09;4.95;;;3.78;;
8225;SDS011;4154;48.810;9.012;2023-06-19T12:04:35;5.65;;;3.85;;
8225;SDS011;4154;48.810;9.012;2023-06-19T12:07:01;3.63;;;3.35;;
8225;SDS011;4154;48.810;9.012;2023-06-19T12:09:29;5.13;;;4.03;;
8225;SDS011;4154;48.810;9.012;2023-06-19T12:11:56;4.80;;;3.90;;
8225;SDS011;4154;48.810;9.012;2023-06-19T12:14:23;6.15;;;3.65;;
8225;SDS011;4154;48.810;9.012;2023-06-19T12:16:49;4.38;;;4.00;;
8225;SDS011;4154;48.810;9.012;2023-06-19T12:19:15;4.55;;;3.67;;
8225;SDS011;4154;48.810;9.012;2023-06-19T12:21:41;4.38;;;3.97;;
8225;SDS011;4154;48.810;9.012;2023-06-19T12:24:08;3.90;;;3.60;;
8225;SDS011;4154;48.810;9.012;2023-06-19T12:26:34;4.25;;;3.95;;
8225;SDS011;4154;48.810;9.012;2023-06-19T12:29:05;4.63;;;3.97;;
8225;SDS011;4154;48.810;9.012;2023-06-19T12:31:32;4.47;;;4.18;;
8225;SDS011;4154;48.810;9.012;2023-06-19T12:33:59;3.90;;;3.60;;
8225;SDS011;4154;48.810;9.012;2023-06-19T12:36:28;4.00;;;3.70;;
8225;SDS011;4154;48.810;9.012;2023-06-19T12:38:56;4.50;;;3.75;;
8225;SDS011;4154;48.810;9.012;2023-06-19T12:41:23;4.15;;;3.85;;
8225;SDS011;4154;48.810;9.012;2023-06-19T12:43:50;5.05;;;3.80;;
8225;SDS011;4154;48.810;9.012;2023-06-19T12:46:16;4.32;;;3.58;;
8225;SDS011;4154;48.810;9.012;2023-06-19T12:48:41;3.97;;;3.67;;
8225;SDS011;4154;48.810;9.012;2023-06-19T12:51:08;5.07;;;4.00;;
8225;SDS011;4154;48.810;9.012;2023-06-19T12:53:34;3.90;;;3.60;;
8225;SDS011;4154;48.810;9.012;2023-06-19T12:56:00;6.68;;;3.97;;
8225;SDS011;4154;48.810;9.012;2023-06-19T12:58:26;4.30;;;3.83;;
8225;SDS011;4154;48.810;9.012;2023-06-19T13:00:53;3.83;;;3.60;;
8225;SDS011;4154;48.810;9.012;2023-06-19T13:03:19;4.47;;;4.07;;
8225;SDS011;4154;48.810;9.012;2023-06-19T13:05:48;4.15;;;3.80;;
8225;SDS011;4154;48.810;9.012;2023-06-19T13:08:13;4.30;;;3.90;;
8225;SDS011;4154;48.810;9.012;2023-06-19T13:10:40;4.38;;;3.97;;
8225;SDS011;4154;48.810;9.012;2023-06-19T13:13:08;4.00;;;3.70;;
8225;SDS011;4154;48.810;9.012;2023-06-19T13:15:35;3.95;;;3.65;;
8225;SDS011;4154;48.810;9.012;2023-06-19T13:18:01;4.40;;;3.90;;
8225;SDS011;4154;48.810;9.012;2023-06-19T13:20:27;4.25;;;3.95;;
8225;SDS011;4154;48.810;9.012;2023-06-19T13:22:53;4.45;;;4.10;;
8225;SDS011;4154;48.810;9.012;2023-06-19T13:25:19;3.90;;;3.60;;
8225;SDS011;4154;48.810;9.012;2023-06-19T13:27:46;4.00;;;3.70;;
8225;SDS011;4154;48.810;9.012;2023-06-19T13:30:13;4.32;;;4.03;;
8225;SDS011;4154;48.810;9.012;2023-06-19T13:32:39;4.35;;;3.95;;
8225;SDS011;4154;48.810;9.012;2023-06-19T13:35:05;3.88;;;3.58;;
8225;SDS011;4154;48.810;9.012;2023-06-19T13:37:33;4.10;;;3.80;;
8225;SDS011;4154;48.810;9.012;2023-06-19T13:40:00;5.28;;;3.85;;
8225;SDS011;4154;48.810;9.012;2023-06-19T13:42:29;3.65;;;3.40;;
8225;SDS011;4154;48.810;9.012;2023-06-19T13:45:00;4.03;;;3.72;;
8225;SDS011;4154;48.810;9.012;2023-06-19T13:47:27;4.00;;;3.70;;
8225;SDS011;4154;48.810;9.012;2023-06-19T13:49:53;5.20;;;3.63;;
8225;SDS011;4154;48.810;9.012;2023-06-19T13:52:19;4.18;;;3.88;;
8225;SDS011;4154;48.810;9.012;2023-06-19T13:54:45;3.75;;;3.45;;
8225;SDS011;4154;48.810;9.012;2023-06-19T13:57:11;4.68;;;3.80;;
8225;SDS011;4154;48.810;9.012;2023-06-19T13:59:37;4.20;;;3.88;;
8225;SDS011;4154;48.810;9.012;2023-06-19T14:02:03;4.05;;;3.75;;
8225;SDS011;4154;48.810;9.012;2023-06-19T14:04:29;4.20;;;3.70;;
8225;SDS011;4154;48.810;9.012;2023-06-19T14:06:56;4.00;;;3.70;;
8225;SDS011;4154;48.810;9.012;2023-06-19T14:09:22;3.88;;;3.58;;
8225;SDS011;4154;48.810;9.012;2023-06-19T14:11:48;4.13;;;3.70;;
8225;SDS011;4154;48.810;9.012;2023-06-19T14:14:14;3.85;;;3.55;;
8225;SDS011;4154;48.810;9.012;2023-06-19T14:16:40;5.47;;;3.90;;
8225;SDS011;4154;48.810;9.012;2023-06-19T14:19:06;3.80;;;3.60;;
8225;SDS011;4154;48.810;9.012;2023-06-19T14:21:32;4.05;;;3.75;;
8225;SDS011;4154;48.810;9.012;2023-06-19T14:23:58;5.63;;;3.78;;
8225;SDS011;4154;48.810;9.012;2023-06-19T14:26:25;3.83;;;3.50;;
8225;SDS011;4154;48.810;9.012;2023-06-19T14:28:51;5.47;;;3.70;;
8225;SDS011;4154;48.810;9.012;2023-06-19T14:31:22;3.92;;;3.63;;
8225;SDS011;4154;48.810;9.012;2023-06-19T14:33:50;4.32;;;3.70;;
8225;SDS011;4154;48.810;9.012;2023-06-19T14:36:16;4.38;;;3.60;;
8225;SDS011;4154;48.810;9.012;2023-06-19T14:38:42;4.15;;;3.67;;
8225;SDS011;4154;48.810;9.012;2023-06-19T14:41:08;4.25;;;3.85;;
8225;SDS011;4154;48.810;9.012;2023-06-19T14:43:35;3.92;;;3.63;;
8225;SDS011;4154;48.810;9.012;2023-06-19T14:46:01;4.47;;;4.10;;
8225;SDS011;4154;48.810;9.012;2023-06-19T14:48:29;3.90;;;3.60;;
8225;SDS011;4154;48.810;9.012;2023-06-19T14:50:55;3.72;;;3.42;;
8225;SDS011;4154;48.810;9.012;2023-06-19T14:53:21;4.07;;;3.45;;
8225;SDS011;4154;48.810;9.012;2023-06-19T14:55:47;3.88;;;3.50;;
8225;SDS011;4154;48.810;9.012;2023-06-19T14:58:13;4.05;;;3.72;;
8225;SDS011;4154;48.810;9.012;2023-06-19T15:00:40;4.85;;;4.00;;
8225;SDS011;4154;48.810;9.012;2023-06-19T15:03:06;4.53;;;3.78;;
8225;SDS011;4154;48.810;9.012;2023-06-19T15:05:33;4.00;;;3.70;;
8225;SDS011;4154;48.810;9.012;2023-06-19T15:07:59;4.00;;;3.60;;
8225;SDS011;4154;48.810;9.012;2023-06-19T15:10:26;3.90;;;3.45;;
8225;SDS011;4154;48.810;9.012;2023-06-19T15:12:52;4.18;;;3.85;;
8225;SDS011;4154;48.810;9.012;2023-06-19T15:15:18;4.07;;;3.70;;
8225;SDS011;4154;48.810;9.012;2023-06-19T15:17:44;4.18;;;3.83;;